createdAt,value
2019-02-20T00:01:25.963Z,43.80
2019-02-20T00:03:58.414Z,43.70
2019-02-20T00:06:30.825Z,43.60
2019-02-20T00:09:04.316Z,43.40
2019-02-20T00:11:38.324Z,43.40
2019-02-20T00:14:10.712Z,43.60
2019-02-20T00:16:43.103Z,43.60
2019-02-20T00:19:15.494Z,43.60
2019-02-20T00:21:47.897Z,43.40
2019-02-20T00:24:20.284Z,43.40
2019-02-20T00:26:52.688Z,43.40
2019-02-20T00:29:25.083Z,43.40
2019-02-20T00:31:57.497Z,43.40
2019-02-20T00:34:29.878Z,43.50
2019-02-20T00:37:02.286Z,43.60
2019-02-20T00:39:34.666Z,43.60
2019-02-20T00:42:07.075Z,43.70
2019-02-20T00:45:10.669Z,43.80
2019-02-20T00:48:01.010Z,43.80
2019-02-20T00:50:34.625Z,43.90
2019-02-20T00:53:31.937Z,44.00
2019-02-20T00:56:04.325Z,44.10
2019-02-20T00:58:36.647Z,44.00
2019-02-20T01:01:09.056Z,43.90
2019-02-20T01:03:41.449Z,43.90
2019-02-20T01:06:14.912Z,43.90
2019-02-20T01:08:47.318Z,44.00
2019-02-20T01:11:19.639Z,43.80
2019-02-20T01:13:51.902Z,43.90
2019-02-20T01:16:24.343Z,43.80
2019-02-20T01:18:56.746Z,44.00
2019-02-20T01:21:29.143Z,44.00
2019-02-20T01:24:01.549Z,44.00
2019-02-20T01:26:49.525Z,44.10
2019-02-20T01:29:21.945Z,44.00
2019-02-20T01:31:54.339Z,43.90
2019-02-20T01:34:26.743Z,43.90
2019-02-20T01:36:59.135Z,43.90
2019-02-20T01:39:31.534Z,43.90
2019-02-20T01:42:03.936Z,44.10
2019-02-20T01:44:36.332Z,44.20
2019-02-20T01:47:08.665Z,44.10
2019-02-20T01:49:41.069Z,44.20
2019-02-20T01:52:13.453Z,44.00
2019-02-20T01:54:45.927Z,44.00
2019-02-20T01:57:18.306Z,44.00
2019-02-20T01:59:50.718Z,44.00
2019-02-20T02:02:23.102Z,43.90
2019-02-20T02:04:55.515Z,43.90
2019-02-20T02:07:27.901Z,43.80
2019-02-20T02:10:00.335Z,43.80
2019-02-20T02:12:32.696Z,43.70
2019-02-20T02:15:05.159Z,43.70
2019-02-20T02:17:37.714Z,43.70
2019-02-20T02:20:10.234Z,43.80
2019-02-20T02:22:42.614Z,43.80
2019-02-20T02:25:15.039Z,43.80
2019-02-20T02:27:47.417Z,43.70
2019-02-20T02:30:19.851Z,44.20
2019-02-20T02:32:52.230Z,43.60
2019-02-20T02:35:24.641Z,43.70
2019-02-20T02:37:57.053Z,43.80
2019-02-20T02:40:29.442Z,43.90
2019-02-20T02:43:01.851Z,43.80
2019-02-20T02:45:34.271Z,43.90
2019-02-20T02:48:06.636Z,43.90
2019-02-20T02:50:40.109Z,43.90
2019-02-20T02:53:12.477Z,43.90
2019-02-20T02:55:44.931Z,44.00
2019-02-20T02:58:17.316Z,44.00
2019-02-20T03:00:49.736Z,44.00
2019-02-20T03:03:22.115Z,44.20
2019-02-20T03:05:54.519Z,44.10
2019-02-20T03:08:26.909Z,44.00
2019-02-20T03:10:59.319Z,43.90
2019-02-20T03:13:31.698Z,43.90
2019-02-20T03:16:04.114Z,43.90
2019-02-20T03:18:36.493Z,43.90
2019-02-20T03:21:08.902Z,43.80
2019-02-20T03:23:41.313Z,43.90
2019-02-20T03:26:13.722Z,43.90
2019-02-20T03:28:46.107Z,43.80
2019-02-20T03:31:18.539Z,43.80
2019-02-20T03:33:50.939Z,43.80
2019-02-20T03:36:23.533Z,43.90
2019-02-20T03:38:55.847Z,43.90
2019-02-20T03:41:28.255Z,43.80
2019-02-20T03:44:00.625Z,43.80
2019-02-20T03:46:33.030Z,43.80
2019-02-20T03:49:05.369Z,43.80
2019-02-20T03:51:37.739Z,43.70
2019-02-20T03:54:10.141Z,43.70
2019-02-20T03:56:42.540Z,43.70
2019-02-20T03:59:14.941Z,43.80
2019-02-20T04:01:47.341Z,43.90
2019-02-20T04:04:19.730Z,43.80
2019-02-20T04:06:52.134Z,43.80
2019-02-20T04:09:24.522Z,43.70
2019-02-20T04:11:56.932Z,43.70
2019-02-20T04:14:29.429Z,43.50
2019-02-20T04:17:01.827Z,43.40
2019-02-20T04:19:34.138Z,43.50
2019-02-20T04:22:06.538Z,43.50
2019-02-20T04:24:38.994Z,43.60
2019-02-20T04:27:11.395Z,43.60
2019-02-20T04:29:43.776Z,43.60
2019-02-20T04:32:16.195Z,43.60
2019-02-20T04:34:48.560Z,43.70
2019-02-20T04:37:20.954Z,43.80
2019-02-20T04:39:53.325Z,43.80
2019-02-20T04:42:26.073Z,43.70
2019-02-20T04:44:58.448Z,43.60
2019-02-20T04:47:30.844Z,43.60
2019-02-20T04:50:03.249Z,43.60
2019-02-20T04:52:35.724Z,43.70
2019-02-20T04:55:08.507Z,43.70
2019-02-20T04:57:40.911Z,43.70
2019-02-20T05:00:14.061Z,43.80
2019-02-20T05:02:46.457Z,43.90
2019-02-20T05:05:18.835Z,43.80
2019-02-20T05:07:51.244Z,43.80
2019-02-20T05:10:23.619Z,43.80
2019-02-20T05:12:56.036Z,43.80
2019-02-20T05:15:28.406Z,43.80
2019-02-20T05:18:00.849Z,43.80
2019-02-20T05:20:33.231Z,43.80
2019-02-20T05:23:05.612Z,44.00
2019-02-20T05:25:38.017Z,44.10
2019-02-20T05:28:10.315Z,44.20
2019-02-20T05:30:42.628Z,44.30
2019-02-20T05:33:15.063Z,44.30
2019-02-20T05:35:47.453Z,44.20
2019-02-20T05:38:20.923Z,44.20
2019-02-20T05:40:53.303Z,44.10
2019-02-20T05:43:25.727Z,44.00
2019-02-20T05:45:59.128Z,44.00
2019-02-20T05:48:31.536Z,44.10
2019-02-20T05:51:03.967Z,44.00
2019-02-20T05:53:36.366Z,44.00
2019-02-20T05:56:08.773Z,44.10
2019-02-20T05:58:41.182Z,44.20
2019-02-20T06:01:13.547Z,44.30
2019-02-20T06:03:45.956Z,44.20
2019-02-20T06:06:18.331Z,44.20
2019-02-20T06:08:50.747Z,44.10
2019-02-20T06:11:23.104Z,43.90
2019-02-20T06:13:55.514Z,43.90
2019-02-20T06:16:27.892Z,43.90
2019-02-20T06:19:00.321Z,43.90
2019-02-20T06:21:32.706Z,43.90
2019-02-20T06:24:05.176Z,44.60
2019-02-20T06:26:37.583Z,44.00
2019-02-20T06:29:10.009Z,44.10
2019-02-20T06:31:42.411Z,44.20
2019-02-20T06:34:14.820Z,44.30
2019-02-20T06:36:47.197Z,44.40
2019-02-20T06:39:19.603Z,44.40
2019-02-20T06:41:54.405Z,44.30
2019-02-20T06:44:27.005Z,44.20
2019-02-20T06:46:59.500Z,44.20
2019-02-20T06:49:32.402Z,44.20
2019-02-20T06:52:04.928Z,44.90
2019-02-20T06:54:37.750Z,44.20
2019-02-20T06:57:10.482Z,43.90
2019-02-20T06:59:42.894Z,43.90
2019-02-20T07:02:15.431Z,43.80
2019-02-20T07:05:44.624Z,43.90
2019-02-20T07:09:18.865Z,44.00
2019-02-20T07:12:28.722Z,44.00
2019-02-20T07:16:20.162Z,44.00
2019-02-20T07:19:15.999Z,44.00
2019-02-20T07:22:26.055Z,44.20
2019-02-20T07:25:53.915Z,44.80
2019-02-20T07:29:39.931Z,44.20
2019-02-20T07:32:16.817Z,44.30
2019-02-20T07:34:49.533Z,44.50
2019-02-20T07:37:22.194Z,44.60
2019-02-20T07:39:54.767Z,44.70
2019-02-20T07:42:27.285Z,44.70
2019-02-20T07:44:59.853Z,44.60
2019-02-20T07:47:32.994Z,44.50
2019-02-20T07:50:06.482Z,44.50
2019-02-20T07:52:39.003Z,44.50
2019-02-20T07:55:13.664Z,44.50
2019-02-20T07:57:46.302Z,44.70
2019-02-20T08:00:19.852Z,44.80
2019-02-20T08:02:52.489Z,45.00
2019-02-20T08:05:24.958Z,44.90
2019-02-20T08:07:57.722Z,44.90
2019-02-20T08:11:10.324Z,45.00
2019-02-20T08:13:58.777Z,45.00
2019-02-20T08:16:58.792Z,44.90
2019-02-20T08:19:49.598Z,44.80
2019-02-20T08:22:25.851Z,44.90
2019-02-20T08:25:07.880Z,45.00
2019-02-20T08:27:47.531Z,45.00
2019-02-20T08:30:25.486Z,45.10
2019-02-20T08:33:06.085Z,45.30
2019-02-20T08:35:50.434Z,45.40
2019-02-20T08:38:54.538Z,45.50
2019-02-20T08:41:37.408Z,45.60
2019-02-20T08:44:33.752Z,45.70
2019-02-20T08:47:23.586Z,45.90
2019-02-20T08:50:21.230Z,45.80
2019-02-20T08:53:03.251Z,46.00
2019-02-20T08:55:43.599Z,46.20
2019-02-20T08:58:23.892Z,46.20
2019-02-20T09:01:02.490Z,46.10
2019-02-20T09:03:43.180Z,46.30
2019-02-20T09:06:19.318Z,46.50
2019-02-20T09:09:06.440Z,46.80
2019-02-20T09:12:03.316Z,46.90
2019-02-20T09:14:54.427Z,47.00
2019-02-20T09:17:30.884Z,47.10
2019-02-20T09:20:11.001Z,47.10
2019-02-20T09:22:55.626Z,47.20
2019-02-20T09:25:41.338Z,47.40
2019-02-20T09:28:11.088Z,47.30
2019-02-20T09:30:57.428Z,47.50
2019-02-20T09:33:32.727Z,47.70
2019-02-20T09:36:08.890Z,47.80
2019-02-20T09:38:43.563Z,47.90
2019-02-20T09:41:26.533Z,48.00
2019-02-20T09:44:14.043Z,47.80
2019-02-20T09:46:54.765Z,47.60
2019-02-20T09:49:32.797Z,47.60
2019-02-20T09:52:09.530Z,47.40
2019-02-20T09:54:41.969Z,47.30
2019-02-20T09:57:14.502Z,47.40
2019-02-20T09:59:48.134Z,47.60
2019-02-20T10:02:21.507Z,47.80
2019-02-20T10:04:53.966Z,47.70
2019-02-20T10:07:26.423Z,47.60
2019-02-20T10:09:58.902Z,47.50
2019-02-20T10:12:31.338Z,47.50
2019-02-20T10:15:03.913Z,47.50
2019-02-20T10:17:36.576Z,47.40
2019-02-20T10:20:10.593Z,47.50
2019-02-20T10:22:43.058Z,47.40
2019-02-20T10:25:15.555Z,47.30
2019-02-20T10:27:48.008Z,47.10
2019-02-20T10:30:20.431Z,46.80
2019-02-20T10:32:52.919Z,47.00
2019-02-20T10:35:25.394Z,46.60
2019-02-20T10:37:57.852Z,46.80
2019-02-20T10:40:30.345Z,46.90
2019-02-20T10:43:03.639Z,46.60
2019-02-20T10:45:36.279Z,46.50
2019-02-20T10:48:08.712Z,46.30
2019-02-20T10:50:41.229Z,46.10
2019-02-20T10:53:13.672Z,45.90
2019-02-20T10:55:46.127Z,45.90
2019-02-20T10:58:18.567Z,45.90
2019-02-20T11:00:51.036Z,45.60
2019-02-20T11:03:23.577Z,45.50
2019-02-20T11:05:56.033Z,45.50
2019-02-20T11:08:30.372Z,45.30
2019-02-20T11:11:02.794Z,45.30
2019-02-20T11:13:35.314Z,45.30
2019-02-20T11:16:07.846Z,45.40
2019-02-20T11:18:40.303Z,45.30
2019-02-20T11:21:12.779Z,45.30
2019-02-20T11:23:45.219Z,45.30
2019-02-20T11:26:18.651Z,45.20
2019-02-20T11:28:51.455Z,45.10
2019-02-20T11:31:23.930Z,44.90
2019-02-20T11:33:56.395Z,45.00
2019-02-20T11:36:29.063Z,45.10
2019-02-20T11:39:01.496Z,45.00
2019-02-20T11:41:35.581Z,44.90
2019-02-20T11:44:08.049Z,44.70
2019-02-20T11:46:40.438Z,44.80
2019-02-20T11:49:12.869Z,44.90
2019-02-20T11:51:45.332Z,44.80
2019-02-20T11:54:17.795Z,44.70
2019-02-20T11:56:50.277Z,44.60
2019-02-20T11:59:22.816Z,44.60
2019-02-20T12:01:55.307Z,44.30
2019-02-20T12:04:27.773Z,44.30
2019-02-20T12:07:00.258Z,44.30
2019-02-20T12:09:33.113Z,44.30
2019-02-20T12:12:05.500Z,44.30
2019-02-20T12:14:37.932Z,44.10
2019-02-20T12:17:10.396Z,44.20
2019-02-20T12:19:42.829Z,43.90
2019-02-20T12:22:15.283Z,43.80
2019-02-20T12:24:47.715Z,43.80
2019-02-20T12:27:20.193Z,43.80
2019-02-20T12:29:52.666Z,43.60
2019-02-20T12:32:25.174Z,43.70
2019-02-20T12:34:57.591Z,43.50
2019-02-20T12:37:30.056Z,43.30
2019-02-20T12:40:02.480Z,43.20
2019-02-20T12:42:36.021Z,43.10
2019-02-20T12:45:08.584Z,43.20
2019-02-20T12:47:41.039Z,43.20
2019-02-20T12:50:13.598Z,42.90
2019-02-20T12:52:46.381Z,43.10
2019-02-20T12:55:18.995Z,43.20
2019-02-20T12:57:51.425Z,43.10
2019-02-20T13:00:24.025Z,43.10
2019-02-20T13:02:56.524Z,43.10
2019-02-20T13:05:28.939Z,43.10
2019-02-20T13:08:01.380Z,43.20
2019-02-20T13:10:33.890Z,43.10
2019-02-20T13:13:06.424Z,43.20
2019-02-20T13:15:39.053Z,43.10
2019-02-20T13:18:11.551Z,43.00
2019-02-20T13:20:44.076Z,43.00
2019-02-20T13:23:16.523Z,43.10
2019-02-20T13:25:48.946Z,43.90
2019-02-20T13:28:21.397Z,43.20
2019-02-20T13:30:53.830Z,43.10
2019-02-20T13:33:26.313Z,43.30
2019-02-20T13:35:58.770Z,43.30
2019-02-20T13:38:31.240Z,43.10
2019-02-20T13:41:04.035Z,43.10
2019-02-20T13:43:36.589Z,43.10
2019-02-20T13:46:09.045Z,43.20
2019-02-20T13:48:41.507Z,43.30
2019-02-20T13:51:13.934Z,43.40
2019-02-20T13:53:46.778Z,43.30
2019-02-20T13:56:19.428Z,43.00
2019-02-20T13:58:51.935Z,43.00
2019-02-20T14:01:27.460Z,43.10
2019-02-20T14:03:59.893Z,43.10
2019-02-20T14:06:36.010Z,43.20
2019-02-20T14:09:08.463Z,43.10
2019-02-20T14:11:43.831Z,43.00
2019-02-20T14:14:16.764Z,43.10
2019-02-20T14:16:49.399Z,43.10
2019-02-20T14:19:21.852Z,43.20
2019-02-20T14:21:54.401Z,43.40
2019-02-20T14:24:26.841Z,43.40
2019-02-20T14:26:59.290Z,43.50
2019-02-20T14:29:31.739Z,43.40
2019-02-20T14:32:04.344Z,43.40
2019-02-20T14:34:36.866Z,43.10
2019-02-20T14:37:10.270Z,43.20
2019-02-20T14:39:42.831Z,43.20
2019-02-20T14:42:15.638Z,43.20
2019-02-20T14:44:48.091Z,43.30
2019-02-20T14:47:20.445Z,43.30
2019-02-20T14:49:52.903Z,43.30
2019-02-20T14:52:25.322Z,43.10
2019-02-20T14:54:58.265Z,43.10
2019-02-20T14:57:30.690Z,43.20
2019-02-20T15:00:03.209Z,42.90
2019-02-20T15:02:36.197Z,42.90
2019-02-20T15:05:08.649Z,43.10
2019-02-20T15:07:41.698Z,42.90
2019-02-20T15:10:14.147Z,42.80
2019-02-20T15:12:46.762Z,42.60
2019-02-20T15:15:19.311Z,42.60
2019-02-20T15:17:51.773Z,42.50
2019-02-20T15:20:25.415Z,42.50
2019-02-20T15:22:58.457Z,42.70
2019-02-20T15:25:31.014Z,42.40
2019-02-20T15:28:04.695Z,42.50
2019-02-20T15:30:37.325Z,42.40
2019-02-20T15:33:09.798Z,42.50
2019-02-20T15:35:42.323Z,42.60
2019-02-20T15:38:14.763Z,42.60
2019-02-20T15:40:47.235Z,42.40
2019-02-20T15:43:21.623Z,42.50
2019-02-20T15:45:54.058Z,42.40
2019-02-20T15:48:26.481Z,42.50
2019-02-20T15:50:58.910Z,42.30
2019-02-20T15:53:31.332Z,42.20
2019-02-20T15:56:04.165Z,42.20
2019-02-20T15:58:36.658Z,42.20
2019-02-20T16:01:11.583Z,42.30
2019-02-20T16:03:44.168Z,42.40
2019-02-20T16:06:16.628Z,42.50
2019-02-20T16:08:49.298Z,42.50
2019-02-20T16:11:21.791Z,42.50
2019-02-20T16:13:54.203Z,42.50
2019-02-20T16:16:28.268Z,42.50
2019-02-20T16:19:00.965Z,42.50
2019-02-20T16:21:33.409Z,42.50
2019-02-20T16:24:05.829Z,42.50
2019-02-20T16:26:38.276Z,42.50
2019-02-20T16:29:10.822Z,42.60
2019-02-20T16:31:43.302Z,42.70
2019-02-20T16:34:15.784Z,42.70
2019-02-20T16:36:49.218Z,42.70
2019-02-20T16:39:21.779Z,42.70
2019-02-20T16:41:54.262Z,42.80
2019-02-20T16:44:27.285Z,42.70
2019-02-20T16:46:59.747Z,42.70
2019-02-20T16:49:32.195Z,42.70
2019-02-20T16:52:04.650Z,42.70
2019-02-20T16:54:37.234Z,42.60
2019-02-20T16:57:10.070Z,42.50
2019-02-20T16:59:42.555Z,42.70
2019-02-20T17:02:14.991Z,42.70
2019-02-20T17:04:47.468Z,42.70
2019-02-20T17:07:19.919Z,42.70
2019-02-20T17:09:52.720Z,42.60
2019-02-20T17:12:25.203Z,42.60
2019-02-20T17:14:57.591Z,43.30
2019-02-20T17:17:30.008Z,42.60
2019-02-20T17:20:02.363Z,42.60
2019-02-20T17:22:36.132Z,42.60
2019-02-20T17:25:09.703Z,42.50
2019-02-20T17:27:42.117Z,42.60
2019-02-20T17:30:14.619Z,42.50
2019-02-20T17:32:48.118Z,42.70
2019-02-20T17:35:20.438Z,42.60
2019-02-20T17:37:52.979Z,42.50
2019-02-20T17:40:25.461Z,42.60
2019-02-20T17:42:57.930Z,42.60
2019-02-20T17:45:30.606Z,42.50
2019-02-20T17:48:03.019Z,42.50
2019-02-20T17:50:36.579Z,42.60
2019-02-20T17:53:09.018Z,42.50
2019-02-20T17:55:42.798Z,42.70
2019-02-20T17:58:16.811Z,42.60
2019-02-20T18:00:49.193Z,42.60
2019-02-20T18:03:21.589Z,42.60
2019-02-20T18:05:54.065Z,42.60
2019-02-20T18:08:27.464Z,42.60
2019-02-20T18:11:01.445Z,42.70
2019-02-20T18:13:33.965Z,42.70
2019-02-20T18:16:06.351Z,42.70
2019-02-20T18:18:38.794Z,42.70
2019-02-20T18:21:11.177Z,42.70
2019-02-20T18:23:43.677Z,42.70
2019-02-20T18:26:17.170Z,42.70
2019-02-20T18:28:49.672Z,42.90
2019-02-20T18:31:22.089Z,42.80
2019-02-20T18:33:58.290Z,42.80
2019-02-20T18:36:32.264Z,42.90
2019-02-20T18:39:05.733Z,43.00
2019-02-20T18:41:39.444Z,42.90
2019-02-20T18:44:11.917Z,42.90
2019-02-20T18:46:44.339Z,43.10
2019-02-20T18:49:16.862Z,43.00
2019-02-20T18:51:49.302Z,43.00
2019-02-20T18:54:21.777Z,43.10
2019-02-20T18:56:54.192Z,43.30
2019-02-20T18:59:26.665Z,43.40
2019-02-20T19:01:59.108Z,43.30
2019-02-20T19:04:31.640Z,43.30
2019-02-20T19:07:11.602Z,43.40
2019-02-20T19:09:48.175Z,43.60
2019-02-20T19:13:08.276Z,43.50
2019-02-20T19:16:51.990Z,43.60
2019-02-20T19:20:23.625Z,43.50
2019-02-20T19:23:46.611Z,43.60
2019-02-20T19:26:59.469Z,43.70
2019-02-20T19:30:42.476Z,43.70
2019-02-20T19:33:48.933Z,43.60
2019-02-20T19:36:58.753Z,43.60
2019-02-20T19:40:22.420Z,43.60
2019-02-20T19:43:46.806Z,43.70
2019-02-20T19:47:28.574Z,43.60
2019-02-20T19:50:44.486Z,43.70
2019-02-20T19:53:59.834Z,43.70
2019-02-20T19:57:36.685Z,43.70
2019-02-20T20:01:17.322Z,43.80
2019-02-20T20:04:43.655Z,43.80
2019-02-20T20:08:00.277Z,43.60
2019-02-20T20:11:29.862Z,43.60
2019-02-20T20:14:54.598Z,43.60
2019-02-20T20:18:33.889Z,43.80
2019-02-20T20:21:37.460Z,43.80
2019-02-20T20:24:54.114Z,43.70
2019-02-20T20:28:20.073Z,43.80
2019-02-20T20:31:47.661Z,43.90
2019-02-20T20:35:38.452Z,44.00
2019-02-20T20:39:07.078Z,43.90
2019-02-20T20:42:56.024Z,44.10
2019-02-20T20:45:53.226Z,43.90
2019-02-20T20:48:58.399Z,43.90
2019-02-20T20:52:39.322Z,43.90
2019-02-20T20:56:11.073Z,43.90
2019-02-20T20:59:26.373Z,43.90
2019-02-20T21:02:37.904Z,44.00
2019-02-20T21:06:13.390Z,44.00
2019-02-20T21:09:38.607Z,44.00
2019-02-20T21:12:59.285Z,44.10
2019-02-20T21:16:34.195Z,44.10
2019-02-20T21:20:12.488Z,44.10
2019-02-20T21:23:34.280Z,44.10
2019-02-20T21:26:49.220Z,44.10
2019-02-20T21:30:09.857Z,44.20
2019-02-20T21:33:59.858Z,44.30
2019-02-20T21:37:19.665Z,44.10
2019-02-20T21:40:04.311Z,44.20
2019-02-20T21:43:55.585Z,44.30
2019-02-20T21:47:15.683Z,44.50
2019-02-20T21:50:50.543Z,44.20
2019-02-20T21:54:07.780Z,44.40
2019-02-20T21:57:03.567Z,44.30
2019-02-20T22:00:37.199Z,44.30
2019-02-20T22:03:49.326Z,45.10
2019-02-20T22:07:41.045Z,44.40
2019-02-20T22:11:10.841Z,44.60
2019-02-20T22:14:52.345Z,44.50
2019-02-20T22:18:55.182Z,44.50
2019-02-20T22:22:32.090Z,44.30
2019-02-20T22:26:08.757Z,44.40
2019-02-20T22:29:17.897Z,44.50
2019-02-20T22:32:21.635Z,44.50
2019-02-20T22:35:44.818Z,44.70
2019-02-20T22:39:18.955Z,44.60
2019-02-20T22:42:37.168Z,44.40
2019-02-20T22:46:11.304Z,44.40
2019-02-20T22:50:14.793Z,44.40
2019-02-20T22:53:30.260Z,44.60
2019-02-20T22:57:08.742Z,44.60
2019-02-20T23:00:21.487Z,44.80
2019-02-20T23:03:41.515Z,44.50
2019-02-20T23:06:48.765Z,44.50
2019-02-20T23:10:12.423Z,44.40
2019-02-20T23:13:56.615Z,44.40
2019-02-20T23:16:29.019Z,44.40
2019-02-20T23:19:01.405Z,44.40
2019-02-20T23:21:33.814Z,44.40
2019-02-20T23:24:06.193Z,44.50
2019-02-20T23:26:38.617Z,44.50
2019-02-20T23:29:11.055Z,44.40
2019-02-20T23:31:43.538Z,44.50
2019-02-20T23:34:15.950Z,44.40
2019-02-20T23:36:48.367Z,44.30
2019-02-20T23:39:20.762Z,44.20
2019-02-20T23:41:53.089Z,44.40
2019-02-20T23:44:25.477Z,44.50
2019-02-20T23:46:57.901Z,44.50
2019-02-20T23:49:30.303Z,44.40
2019-02-20T23:52:02.708Z,44.30
2019-02-20T23:54:35.092Z,44.10
2019-02-20T23:57:07.490Z,44.30
2019-02-20T23:59:39.880Z,44.20
